sensor_id;sensor_type;location;lat;lon;timestamp;P1;durP1;ratioP1;P2;durP2;ratioP2
7929;SDS011;4010;42.698;23.124;2022-10-16T00:01:03;8.73;;;5.93;;
7929;SDS011;4010;42.698;23.124;2022-10-16T00:03:31;7.13;;;5.70;;
7929;SDS011;4010;42.698;23.124;2022-10-16T00:06:00;8.03;;;5.60;;
7929;SDS011;4010;42.698;23.124;2022-10-16T00:08:28;7.17;;;5.03;;
7929;SDS011;4010;42.698;23.124;2022-10-16T00:10:58;8.17;;;5.67;;
7929;SDS011;4010;42.698;23.124;2022-10-16T00:13:26;6.23;;;5.30;;
7929;SDS011;4010;42.698;23.124;2022-10-16T00:15:54;8.77;;;5.70;;
7929;SDS011;4010;42.698;23.124;2022-10-16T00:18:22;7.80;;;6.30;;
7929;SDS011;4010;42.698;23.124;2022-10-16T00:20:49;12.00;;;7.20;;
7929;SDS011;4010;42.698;23.124;2022-10-16T00:23:17;10.57;;;7.03;;
7929;SDS011;4010;42.698;23.124;2022-10-16T00:25:45;7.13;;;4.87;;
7929;SDS011;4010;42.698;23.124;2022-10-16T00:28:29;8.03;;;6.20;;
7929;SDS011;4010;42.698;23.124;2022-10-16T00:30:56;9.53;;;6.40;;
7929;SDS011;4010;42.698;23.124;2022-10-16T00:33:23;9.63;;;6.37;;
7929;SDS011;4010;42.698;23.124;2022-10-16T00:35:50;12.07;;;7.13;;
7929;SDS011;4010;42.698;23.124;2022-10-16T00:38:18;9.87;;;6.47;;
7929;SDS011;4010;42.698;23.124;2022-10-16T00:40:45;8.33;;;6.00;;
7929;SDS011;4010;42.698;23.124;2022-10-16T00:43:32;9.53;;;5.83;;
7929;SDS011;4010;42.698;23.124;2022-10-16T00:46:00;9.53;;;6.00;;
7929;SDS011;4010;42.698;23.124;2022-10-16T00:48:29;7.63;;;5.90;;
7929;SDS011;4010;42.698;23.124;2022-10-16T00:50:57;7.97;;;4.53;;
7929;SDS011;4010;42.698;23.124;2022-10-16T00:53:26;9.10;;;5.10;;
7929;SDS011;4010;42.698;23.124;2022-10-16T00:55:53;7.43;;;5.17;;
7929;SDS011;4010;42.698;23.124;2022-10-16T00:58:20;8.37;;;5.53;;
7929;SDS011;4010;42.698;23.124;2022-10-16T01:00:47;8.23;;;6.00;;
7929;SDS011;4010;42.698;23.124;2022-10-16T01:03:25;10.83;;;6.80;;
7929;SDS011;4010;42.698;23.124;2022-10-16T01:05:57;7.50;;;5.90;;
7929;SDS011;4010;42.698;23.124;2022-10-16T01:08:36;9.97;;;6.80;;
7929;SDS011;4010;42.698;23.124;2022-10-16T01:11:12;11.07;;;6.00;;
7929;SDS011;4010;42.698;23.124;2022-10-16T01:13:48;10.83;;;6.83;;
7929;SDS011;4010;42.698;23.124;2022-10-16T01:16:21;9.30;;;6.10;;
7929;SDS011;4010;42.698;23.124;2022-10-16T01:19:02;6.93;;;4.93;;
7929;SDS011;4010;42.698;23.124;2022-10-16T01:21:36;7.27;;;5.00;;
7929;SDS011;4010;42.698;23.124;2022-10-16T01:24:08;7.97;;;5.03;;
7929;SDS011;4010;42.698;23.124;2022-10-16T01:26:49;6.00;;;4.80;;
7929;SDS011;4010;42.698;23.124;2022-10-16T01:29:40;8.87;;;4.60;;
7929;SDS011;4010;42.698;23.124;2022-10-16T01:32:16;10.47;;;5.30;;
7929;SDS011;4010;42.698;23.124;2022-10-16T01:34:47;5.63;;;4.67;;
7929;SDS011;4010;42.698;23.124;2022-10-16T01:37:21;7.27;;;5.13;;
7929;SDS011;4010;42.698;23.124;2022-10-16T01:39:55;7.20;;;4.60;;
7929;SDS011;4010;42.698;23.124;2022-10-16T01:42:27;7.37;;;4.77;;
7929;SDS011;4010;42.698;23.124;2022-10-16T01:44:58;6.40;;;4.80;;
7929;SDS011;4010;42.698;23.124;2022-10-16T01:47:28;8.20;;;5.47;;
7929;SDS011;4010;42.698;23.124;2022-10-16T01:49:57;5.70;;;4.53;;
7929;SDS011;4010;42.698;23.124;2022-10-16T01:52:27;8.33;;;5.27;;
7929;SDS011;4010;42.698;23.124;2022-10-16T01:54:56;9.30;;;5.37;;
7929;SDS011;4010;42.698;23.124;2022-10-16T01:57:26;8.30;;;5.20;;
7929;SDS011;4010;42.698;23.124;2022-10-16T01:59:56;9.70;;;6.17;;
7929;SDS011;4010;42.698;23.124;2022-10-16T02:02:28;7.03;;;4.93;;
7929;SDS011;4010;42.698;23.124;2022-10-16T02:04:58;12.83;;;5.40;;
7929;SDS011;4010;42.698;23.124;2022-10-16T02:07:29;6.03;;;4.63;;
7929;SDS011;4010;42.698;23.124;2022-10-16T02:09:56;7.50;;;4.90;;
7929;SDS011;4010;42.698;23.124;2022-10-16T02:12:23;6.27;;;4.93;;
7929;SDS011;4010;42.698;23.124;2022-10-16T02:14:53;6.10;;;4.60;;
7929;SDS011;4010;42.698;23.124;2022-10-16T02:17:21;11.30;;;5.77;;
7929;SDS011;4010;42.698;23.124;2022-10-16T02:19:49;9.27;;;4.77;;
7929;SDS011;4010;42.698;23.124;2022-10-16T02:22:20;7.30;;;4.73;;
7929;SDS011;4010;42.698;23.124;2022-10-16T02:24:51;5.63;;;4.53;;
7929;SDS011;4010;42.698;23.124;2022-10-16T02:27:23;6.30;;;4.67;;
7929;SDS011;4010;42.698;23.124;2022-10-16T02:29:55;7.63;;;4.60;;
7929;SDS011;4010;42.698;23.124;2022-10-16T02:32:28;8.10;;;5.13;;
7929;SDS011;4010;42.698;23.124;2022-10-16T02:34:57;7.67;;;5.27;;
7929;SDS011;4010;42.698;23.124;2022-10-16T02:37:26;9.80;;;5.67;;
7929;SDS011;4010;42.698;23.124;2022-10-16T02:39:55;8.73;;;5.63;;
7929;SDS011;4010;42.698;23.124;2022-10-16T02:42:27;9.40;;;5.33;;
7929;SDS011;4010;42.698;23.124;2022-10-16T02:44:55;8.90;;;5.67;;
7929;SDS011;4010;42.698;23.124;2022-10-16T02:47:22;8.17;;;5.23;;
7929;SDS011;4010;42.698;23.124;2022-10-16T02:49:50;8.37;;;5.47;;
7929;SDS011;4010;42.698;23.124;2022-10-16T02:52:17;6.20;;;4.37;;
7929;SDS011;4010;42.698;23.124;2022-10-16T02:54:44;11.30;;;5.10;;
7929;SDS011;4010;42.698;23.124;2022-10-16T02:57:11;7.27;;;5.33;;
7929;SDS011;4010;42.698;23.124;2022-10-16T02:59:37;7.23;;;5.47;;
7929;SDS011;4010;42.698;23.124;2022-10-16T03:02:04;6.33;;;5.07;;
7929;SDS011;4010;42.698;23.124;2022-10-16T03:04:31;13.80;;;6.27;;
7929;SDS011;4010;42.698;23.124;2022-10-16T03:06:59;7.97;;;5.07;;
7929;SDS011;4010;42.698;23.124;2022-10-16T03:09:26;9.53;;;5.53;;
7929;SDS011;4010;42.698;23.124;2022-10-16T03:11:53;8.03;;;5.70;;
7929;SDS011;4010;42.698;23.124;2022-10-16T03:14:20;13.27;;;6.07;;
7929;SDS011;4010;42.698;23.124;2022-10-16T03:16:47;7.33;;;5.57;;
7929;SDS011;4010;42.698;23.124;2022-10-16T03:19:13;8.13;;;5.63;;
7929;SDS011;4010;42.698;23.124;2022-10-16T03:21:42;9.57;;;5.00;;
7929;SDS011;4010;42.698;23.124;2022-10-16T03:24:10;9.30;;;5.23;;
7929;SDS011;4010;42.698;23.124;2022-10-16T03:26:37;10.27;;;5.53;;
7929;SDS011;4010;42.698;23.124;2022-10-16T03:29:03;7.13;;;4.87;;
7929;SDS011;4010;42.698;23.124;2022-10-16T03:31:31;8.00;;;4.90;;
7929;SDS011;4010;42.698;23.124;2022-10-16T03:33:58;7.53;;;5.43;;
7929;SDS011;4010;42.698;23.124;2022-10-16T03:36:24;8.23;;;5.17;;
7929;SDS011;4010;42.698;23.124;2022-10-16T03:38:51;9.73;;;5.43;;
7929;SDS011;4010;42.698;23.124;2022-10-16T03:41:19;7.17;;;5.30;;
7929;SDS011;4010;42.698;23.124;2022-10-16T03:43:46;7.20;;;5.10;;
7929;SDS011;4010;42.698;23.124;2022-10-16T03:46:13;7.13;;;5.40;;
7929;SDS011;4010;42.698;23.124;2022-10-16T03:48:39;5.83;;;4.60;;
7929;SDS011;4010;42.698;23.124;2022-10-16T03:51:06;5.83;;;4.70;;
7929;SDS011;4010;42.698;23.124;2022-10-16T03:53:33;10.90;;;4.37;;
7929;SDS011;4010;42.698;23.124;2022-10-16T03:55:59;9.30;;;4.93;;
7929;SDS011;4010;42.698;23.124;2022-10-16T03:58:28;8.10;;;5.33;;
7929;SDS011;4010;42.698;23.124;2022-10-16T04:00:54;8.20;;;5.00;;
7929;SDS011;4010;42.698;23.124;2022-10-16T04:03:21;5.97;;;4.47;;
7929;SDS011;4010;42.698;23.124;2022-10-16T04:05:48;7.40;;;4.67;;
7929;SDS011;4010;42.698;23.124;2022-10-16T04:08:15;8.77;;;4.53;;
7929;SDS011;4010;42.698;23.124;2022-10-16T04:10:42;5.87;;;4.80;;
7929;SDS011;4010;42.698;23.124;2022-10-16T04:13:09;6.07;;;4.90;;
7929;SDS011;4010;42.698;23.124;2022-10-16T04:15:37;6.67;;;4.40;;
7929;SDS011;4010;42.698;23.124;2022-10-16T04:18:04;10.53;;;5.60;;
7929;SDS011;4010;42.698;23.124;2022-10-16T04:20:31;10.97;;;4.20;;
7929;SDS011;4010;42.698;23.124;2022-10-16T04:22:58;6.93;;;5.10;;
7929;SDS011;4010;42.698;23.124;2022-10-16T04:25:24;6.67;;;4.80;;
7929;SDS011;4010;42.698;23.124;2022-10-16T04:27:52;6.53;;;5.13;;
7929;SDS011;4010;42.698;23.124;2022-10-16T04:30:19;8.17;;;4.80;;
7929;SDS011;4010;42.698;23.124;2022-10-16T04:32:48;5.70;;;4.20;;
7929;SDS011;4010;42.698;23.124;2022-10-16T04:35:15;6.37;;;4.20;;
7929;SDS011;4010;42.698;23.124;2022-10-16T04:37:42;6.10;;;4.60;;
7929;SDS011;4010;42.698;23.124;2022-10-16T04:40:09;5.87;;;4.80;;
7929;SDS011;4010;42.698;23.124;2022-10-16T04:42:36;6.90;;;4.77;;
7929;SDS011;4010;42.698;23.124;2022-10-16T04:45:03;5.90;;;4.30;;
7929;SDS011;4010;42.698;23.124;2022-10-16T04:47:31;7.90;;;5.00;;
7929;SDS011;4010;42.698;23.124;2022-10-16T04:49:59;10.57;;;5.30;;
7929;SDS011;4010;42.698;23.124;2022-10-16T04:52:27;6.37;;;4.87;;
7929;SDS011;4010;42.698;23.124;2022-10-16T04:54:54;8.23;;;5.70;;
7929;SDS011;4010;42.698;23.124;2022-10-16T04:57:25;7.00;;;4.83;;
7929;SDS011;4010;42.698;23.124;2022-10-16T04:59:52;8.10;;;5.30;;
7929;SDS011;4010;42.698;23.124;2022-10-16T05:02:18;8.20;;;4.63;;
7929;SDS011;4010;42.698;23.124;2022-10-16T05:04:45;7.33;;;4.73;;
7929;SDS011;4010;42.698;23.124;2022-10-16T05:07:13;8.73;;;5.27;;
7929;SDS011;4010;42.698;23.124;2022-10-16T05:09:40;9.80;;;5.53;;
7929;SDS011;4010;42.698;23.124;2022-10-16T05:12:07;8.80;;;5.37;;
7929;SDS011;4010;42.698;23.124;2022-10-16T05:14:34;7.57;;;5.70;;
7929;SDS011;4010;42.698;23.124;2022-10-16T05:17:00;8.33;;;5.47;;
7929;SDS011;4010;42.698;23.124;2022-10-16T05:19:27;8.37;;;5.73;;
7929;SDS011;4010;42.698;23.124;2022-10-16T05:21:54;7.40;;;5.43;;
7929;SDS011;4010;42.698;23.124;2022-10-16T05:24:22;12.47;;;5.90;;
7929;SDS011;4010;42.698;23.124;2022-10-16T05:26:49;13.97;;;6.47;;
7929;SDS011;4010;42.698;23.124;2022-10-16T05:29:16;11.10;;;6.63;;
7929;SDS011;4010;42.698;23.124;2022-10-16T05:31:43;8.63;;;6.40;;
7929;SDS011;4010;42.698;23.124;2022-10-16T05:34:10;8.47;;;5.80;;
7929;SDS011;4010;42.698;23.124;2022-10-16T05:36:37;9.60;;;6.90;;
7929;SDS011;4010;42.698;23.124;2022-10-16T05:39:03;9.27;;;6.40;;
7929;SDS011;4010;42.698;23.124;2022-10-16T05:41:31;11.07;;;6.80;;
7929;SDS011;4010;42.698;23.124;2022-10-16T05:43:59;10.53;;;7.13;;
7929;SDS011;4010;42.698;23.124;2022-10-16T05:46:26;11.13;;;6.60;;
7929;SDS011;4010;42.698;23.124;2022-10-16T05:48:52;9.33;;;6.93;;
7929;SDS011;4010;42.698;23.124;2022-10-16T05:51:19;9.13;;;7.10;;
7929;SDS011;4010;42.698;23.124;2022-10-16T05:53:46;11.47;;;7.63;;
7929;SDS011;4010;42.698;23.124;2022-10-16T05:56:13;9.60;;;6.73;;
7929;SDS011;4010;42.698;23.124;2022-10-16T05:58:41;9.33;;;7.13;;
7929;SDS011;4010;42.698;23.124;2022-10-16T06:01:10;9.70;;;7.30;;
7929;SDS011;4010;42.698;23.124;2022-10-16T06:03:38;9.17;;;7.73;;
7929;SDS011;4010;42.698;23.124;2022-10-16T06:06:07;11.57;;;7.50;;
7929;SDS011;4010;42.698;23.124;2022-10-16T06:08:34;11.03;;;7.33;;
7929;SDS011;4010;42.698;23.124;2022-10-16T06:11:01;11.00;;;7.73;;
7929;SDS011;4010;42.698;23.124;2022-10-16T06:13:29;10.10;;;7.77;;
7929;SDS011;4010;42.698;23.124;2022-10-16T06:15:58;9.87;;;7.63;;
7929;SDS011;4010;42.698;23.124;2022-10-16T06:18:25;11.43;;;7.97;;
7929;SDS011;4010;42.698;23.124;2022-10-16T06:20:53;11.27;;;8.30;;
7929;SDS011;4010;42.698;23.124;2022-10-16T06:23:20;10.70;;;8.70;;
7929;SDS011;4010;42.698;23.124;2022-10-16T06:25:47;10.83;;;9.20;;
7929;SDS011;4010;42.698;23.124;2022-10-16T06:28:14;10.50;;;8.13;;
7929;SDS011;4010;42.698;23.124;2022-10-16T06:30:41;10.70;;;7.77;;
7929;SDS011;4010;42.698;23.124;2022-10-16T06:33:10;13.40;;;9.00;;
7929;SDS011;4010;42.698;23.124;2022-10-16T06:35:37;11.63;;;9.47;;
7929;SDS011;4010;42.698;23.124;2022-10-16T06:38:03;10.00;;;8.27;;
7929;SDS011;4010;42.698;23.124;2022-10-16T06:40:30;10.47;;;7.73;;
7929;SDS011;4010;42.698;23.124;2022-10-16T06:42:57;11.80;;;8.57;;
7929;SDS011;4010;42.698;23.124;2022-10-16T06:45:24;11.17;;;8.73;;
7929;SDS011;4010;42.698;23.124;2022-10-16T06:47:50;10.13;;;8.43;;
7929;SDS011;4010;42.698;23.124;2022-10-16T06:50:19;13.80;;;8.43;;
7929;SDS011;4010;42.698;23.124;2022-10-16T06:52:45;9.13;;;8.10;;
7929;SDS011;4010;42.698;23.124;2022-10-16T06:55:12;9.37;;;7.83;;
7929;SDS011;4010;42.698;23.124;2022-10-16T06:57:39;9.77;;;7.90;;
7929;SDS011;4010;42.698;23.124;2022-10-16T07:00:06;10.07;;;6.83;;
7929;SDS011;4010;42.698;23.124;2022-10-16T07:02:33;8.80;;;7.53;;
7929;SDS011;4010;42.698;23.124;2022-10-16T07:05:00;8.97;;;7.40;;
7929;SDS011;4010;42.698;23.124;2022-10-16T07:07:31;8.20;;;6.93;;
7929;SDS011;4010;42.698;23.124;2022-10-16T07:09:57;9.00;;;7.40;;
7929;SDS011;4010;42.698;23.124;2022-10-16T07:12:24;12.43;;;7.47;;
7929;SDS011;4010;42.698;23.124;2022-10-16T07:14:51;9.60;;;7.30;;
7929;SDS011;4010;42.698;23.124;2022-10-16T07:17:19;7.97;;;6.97;;
7929;SDS011;4010;42.698;23.124;2022-10-16T07:19:46;7.97;;;6.33;;
7929;SDS011;4010;42.698;23.124;2022-10-16T07:22:12;8.63;;;6.23;;
7929;SDS011;4010;42.698;23.124;2022-10-16T07:24:40;9.77;;;6.87;;
7929;SDS011;4010;42.698;23.124;2022-10-16T07:27:08;7.77;;;6.00;;
7929;SDS011;4010;42.698;23.124;2022-10-16T07:29:35;9.30;;;6.13;;
7929;SDS011;4010;42.698;23.124;2022-10-16T07:32:02;7.40;;;5.80;;
7929;SDS011;4010;42.698;23.124;2022-10-16T07:34:29;6.37;;;5.57;;
7929;SDS011;4010;42.698;23.124;2022-10-16T07:36:55;5.47;;;4.97;;
7929;SDS011;4010;42.698;23.124;2022-10-16T07:39:22;7.07;;;5.67;;
7929;SDS011;4010;42.698;23.124;2022-10-16T07:41:50;8.23;;;5.77;;
7929;SDS011;4010;42.698;23.124;2022-10-16T07:44:17;8.57;;;5.43;;
7929;SDS011;4010;42.698;23.124;2022-10-16T07:46:44;5.87;;;5.20;;
7929;SDS011;4010;42.698;23.124;2022-10-16T07:49:10;8.43;;;5.60;;
7929;SDS011;4010;42.698;23.124;2022-10-16T07:51:37;6.50;;;4.90;;
7929;SDS011;4010;42.698;23.124;2022-10-16T07:54:04;6.07;;;5.17;;
7929;SDS011;4010;42.698;23.124;2022-10-16T07:56:31;5.43;;;4.80;;
7929;SDS011;4010;42.698;23.124;2022-10-16T07:58:59;8.27;;;6.00;;
7929;SDS011;4010;42.698;23.124;2022-10-16T08:01:26;6.03;;;4.87;;
7929;SDS011;4010;42.698;23.124;2022-10-16T08:03:53;6.80;;;5.70;;
7929;SDS011;4010;42.698;23.124;2022-10-16T08:06:20;7.53;;;6.00;;
7929;SDS011;4010;42.698;23.124;2022-10-16T08:08:48;7.13;;;6.40;;
7929;SDS011;4010;42.698;23.124;2022-10-16T08:11:15;6.57;;;5.87;;
7929;SDS011;4010;42.698;23.124;2022-10-16T08:13:42;8.37;;;5.87;;
7929;SDS011;4010;42.698;23.124;2022-10-16T08:16:10;8.30;;;6.27;;
7929;SDS011;4010;42.698;23.124;2022-10-16T08:18:37;7.13;;;5.43;;
7929;SDS011;4010;42.698;23.124;2022-10-16T08:21:06;5.53;;;4.93;;
7929;SDS011;4010;42.698;23.124;2022-10-16T08:23:34;6.40;;;5.27;;
7929;SDS011;4010;42.698;23.124;2022-10-16T08:26:04;6.63;;;5.63;;
7929;SDS011;4010;42.698;23.124;2022-10-16T08:28:33;8.83;;;5.87;;
7929;SDS011;4010;42.698;23.124;2022-10-16T08:31:07;8.57;;;7.07;;
7929;SDS011;4010;42.698;23.124;2022-10-16T08:33:36;7.20;;;5.50;;
7929;SDS011;4010;42.698;23.124;2022-10-16T08:36:04;7.33;;;5.97;;
7929;SDS011;4010;42.698;23.124;2022-10-16T08:38:32;8.57;;;5.23;;
7929;SDS011;4010;42.698;23.124;2022-10-16T08:41:02;7.17;;;6.47;;
7929;SDS011;4010;42.698;23.124;2022-10-16T08:44:04;6.47;;;5.23;;
7929;SDS011;4010;42.698;23.124;2022-10-16T08:46:51;5.10;;;4.60;;
7929;SDS011;4010;42.698;23.124;2022-10-16T08:49:30;6.07;;;4.83;;
7929;SDS011;4010;42.698;23.124;2022-10-16T08:51:58;7.10;;;4.67;;
7929;SDS011;4010;42.698;23.124;2022-10-16T08:54:27;6.03;;;4.27;;
7929;SDS011;4010;42.698;23.124;2022-10-16T08:57:00;7.43;;;4.03;;
7929;SDS011;4010;42.698;23.124;2022-10-16T08:59:35;6.13;;;4.20;;
7929;SDS011;4010;42.698;23.124;2022-10-16T09:02:02;5.03;;;4.53;;
7929;SDS011;4010;42.698;23.124;2022-10-16T09:04:45;4.20;;;3.80;;
7929;SDS011;4010;42.698;23.124;2022-10-16T09:07:49;6.27;;;4.10;;
7929;SDS011;4010;42.698;23.124;2022-10-16T09:10:31;5.17;;;4.10;;
7929;SDS011;4010;42.698;23.124;2022-10-16T09:13:13;5.27;;;3.20;;
7929;SDS011;4010;42.698;23.124;2022-10-16T09:15:48;4.03;;;3.20;;
7929;SDS011;4010;42.698;23.124;2022-10-16T09:18:23;3.43;;;2.93;;
7929;SDS011;4010;42.698;23.124;2022-10-16T09:20:59;3.53;;;2.80;;
7929;SDS011;4010;42.698;23.124;2022-10-16T09:23:33;3.37;;;2.80;;
7929;SDS011;4010;42.698;23.124;2022-10-16T09:26:02;3.90;;;3.23;;
7929;SDS011;4010;42.698;23.124;2022-10-16T09:28:30;3.10;;;2.80;;
7929;SDS011;4010;42.698;23.124;2022-10-16T09:30:57;3.77;;;2.90;;
7929;SDS011;4010;42.698;23.124;2022-10-16T09:33:24;3.23;;;2.93;;
7929;SDS011;4010;42.698;23.124;2022-10-16T09:35:55;3.37;;;3.00;;
7929;SDS011;4010;42.698;23.124;2022-10-16T09:38:26;3.63;;;3.23;;
7929;SDS011;4010;42.698;23.124;2022-10-16T09:40:54;4.20;;;2.70;;
7929;SDS011;4010;42.698;23.124;2022-10-16T09:43:23;3.37;;;2.90;;
7929;SDS011;4010;42.698;23.124;2022-10-16T09:45:57;3.80;;;3.30;;
7929;SDS011;4010;42.698;23.124;2022-10-16T09:48:25;3.07;;;2.77;;
7929;SDS011;4010;42.698;23.124;2022-10-16T09:50:59;5.13;;;2.63;;
7929;SDS011;4010;42.698;23.124;2022-10-16T09:53:38;2.40;;;2.20;;
7929;SDS011;4010;42.698;23.124;2022-10-16T09:56:09;3.40;;;2.50;;
7929;SDS011;4010;42.698;23.124;2022-10-16T09:58:41;5.07;;;2.50;;
7929;SDS011;4010;42.698;23.124;2022-10-16T10:01:11;2.63;;;2.03;;
7929;SDS011;4010;42.698;23.124;2022-10-16T10:03:40;2.63;;;2.40;;
7929;SDS011;4010;42.698;23.124;2022-10-16T10:06:17;3.77;;;3.00;;
7929;SDS011;4010;42.698;23.124;2022-10-16T10:08:54;2.97;;;2.77;;
7929;SDS011;4010;42.698;23.124;2022-10-16T10:11:36;3.77;;;2.83;;
7929;SDS011;4010;42.698;23.124;2022-10-16T10:14:17;2.90;;;2.57;;
7929;SDS011;4010;42.698;23.124;2022-10-16T10:16:46;2.73;;;2.50;;
7929;SDS011;4010;42.698;23.124;2022-10-16T10:19:14;2.67;;;2.40;;
7929;SDS011;4010;42.698;23.124;2022-10-16T10:21:44;2.87;;;2.27;;
7929;SDS011;4010;42.698;23.124;2022-10-16T10:24:11;2.90;;;2.57;;
7929;SDS011;4010;42.698;23.124;2022-10-16T10:26:41;2.83;;;2.63;;
7929;SDS011;4010;42.698;23.124;2022-10-16T10:29:17;2.73;;;2.40;;
7929;SDS011;4010;42.698;23.124;2022-10-16T10:31:54;2.40;;;2.20;;
7929;SDS011;4010;42.698;23.124;2022-10-16T10:34:33;2.80;;;2.30;;
7929;SDS011;4010;42.698;23.124;2022-10-16T10:37:18;2.40;;;2.20;;
7929;SDS011;4010;42.698;23.124;2022-10-16T10:39:54;2.77;;;2.50;;
7929;SDS011;4010;42.698;23.124;2022-10-16T10:42:29;2.40;;;2.17;;
7929;SDS011;4010;42.698;23.124;2022-10-16T10:45:12;2.67;;;2.23;;
7929;SDS011;4010;42.698;23.124;2022-10-16T10:47:52;2.80;;;2.33;;
7929;SDS011;4010;42.698;23.124;2022-10-16T10:50:30;2.53;;;2.30;;
7929;SDS011;4010;42.698;23.124;2022-10-16T10:53:07;3.83;;;2.43;;
7929;SDS011;4010;42.698;23.124;2022-10-16T10:55:43;3.63;;;2.10;;
7929;SDS011;4010;42.698;23.124;2022-10-16T10:58:27;2.60;;;2.10;;
7929;SDS011;4010;42.698;23.124;2022-10-16T11:01:06;2.33;;;2.03;;
7929;SDS011;4010;42.698;23.124;2022-10-16T11:06:33;3.67;;;2.57;;
7929;SDS011;4010;42.698;23.124;2022-10-16T11:09:06;3.87;;;2.60;;
7929;SDS011;4010;42.698;23.124;2022-10-16T11:11:40;2.97;;;2.57;;
7929;SDS011;4010;42.698;23.124;2022-10-16T11:14:11;2.70;;;2.10;;
7929;SDS011;4010;42.698;23.124;2022-10-16T11:16:45;3.60;;;2.30;;
7929;SDS011;4010;42.698;23.124;2022-10-16T11:19:20;2.60;;;2.40;;
7929;SDS011;4010;42.698;23.124;2022-10-16T11:21:56;3.77;;;2.33;;
7929;SDS011;4010;42.698;23.124;2022-10-16T11:24:34;4.07;;;2.30;;
7929;SDS011;4010;42.698;23.124;2022-10-16T11:27:08;3.33;;;2.50;;
7929;SDS011;4010;42.698;23.124;2022-10-16T11:29:41;2.40;;;2.20;;
7929;SDS011;4010;42.698;23.124;2022-10-16T11:32:15;2.20;;;2.00;;
7929;SDS011;4010;42.698;23.124;2022-10-16T11:34:48;3.07;;;2.77;;
7929;SDS011;4010;42.698;23.124;2022-10-16T11:37:18;3.37;;;1.97;;
7929;SDS011;4010;42.698;23.124;2022-10-16T11:39:51;5.43;;;2.60;;
7929;SDS011;4010;42.698;23.124;2022-10-16T11:42:22;2.47;;;2.23;;
7929;SDS011;4010;42.698;23.124;2022-10-16T11:44:55;2.20;;;2.00;;
7929;SDS011;4010;42.698;23.124;2022-10-16T11:47:31;4.30;;;2.43;;
7929;SDS011;4010;42.698;23.124;2022-10-16T11:50:02;3.50;;;2.30;;
7929;SDS011;4010;42.698;23.124;2022-10-16T11:52:38;2.33;;;2.13;;
7929;SDS011;4010;42.698;23.124;2022-10-16T11:55:13;2.00;;;1.90;;
7929;SDS011;4010;42.698;23.124;2022-10-16T11:57:43;1.23;;;1.23;;
7929;SDS011;4010;42.698;23.124;2022-10-16T12:00:17;2.53;;;2.13;;
7929;SDS011;4010;42.698;23.124;2022-10-16T12:02:50;3.40;;;2.30;;
7929;SDS011;4010;42.698;23.124;2022-10-16T12:05:24;2.40;;;2.20;;
7929;SDS011;4010;42.698;23.124;2022-10-16T12:08:03;2.90;;;2.10;;
7929;SDS011;4010;42.698;23.124;2022-10-16T12:10:37;3.33;;;2.40;;
7929;SDS011;4010;42.698;23.124;2022-10-16T12:13:25;2.20;;;2.00;;
7929;SDS011;4010;42.698;23.124;2022-10-16T12:16:19;1.93;;;1.83;;
7929;SDS011;4010;42.698;23.124;2022-10-16T12:18:48;1.93;;;1.80;;
7929;SDS011;4010;42.698;23.124;2022-10-16T12:21:16;2.47;;;2.27;;
7929;SDS011;4010;42.698;23.124;2022-10-16T12:23:47;2.87;;;2.00;;
7929;SDS011;4010;42.698;23.124;2022-10-16T12:26:24;2.17;;;1.90;;
7929;SDS011;4010;42.698;23.124;2022-10-16T12:28:52;2.00;;;1.70;;
7929;SDS011;4010;42.698;23.124;2022-10-16T12:31:20;3.60;;;2.23;;
7929;SDS011;4010;42.698;23.124;2022-10-16T12:36:29;2.40;;;2.20;;
7929;SDS011;4010;42.698;23.124;2022-10-16T12:38:58;3.20;;;1.90;;
7929;SDS011;4010;42.698;23.124;2022-10-16T12:41:28;3.07;;;2.00;;
7929;SDS011;4010;42.698;23.124;2022-10-16T12:43:56;2.60;;;2.07;;
7929;SDS011;4010;42.698;23.124;2022-10-16T12:46:37;2.33;;;2.13;;
7929;SDS011;4010;42.698;23.124;2022-10-16T12:49:06;2.97;;;2.10;;
7929;SDS011;4010;42.698;23.124;2022-10-16T12:51:46;2.50;;;2.23;;
7929;SDS011;4010;42.698;23.124;2022-10-16T12:54:14;3.57;;;2.00;;
7929;SDS011;4010;42.698;23.124;2022-10-16T12:56:48;2.67;;;2.23;;
7929;SDS011;4010;42.698;23.124;2022-10-16T12:59:22;2.23;;;2.03;;
7929;SDS011;4010;42.698;23.124;2022-10-16T13:02:11;2.60;;;2.27;;
7929;SDS011;4010;42.698;23.124;2022-10-16T13:05:08;3.53;;;1.80;;
7929;SDS011;4010;42.698;23.124;2022-10-16T13:07:53;2.30;;;2.10;;
7929;SDS011;4010;42.698;23.124;2022-10-16T13:10:28;2.30;;;2.00;;
7929;SDS011;4010;42.698;23.124;2022-10-16T13:13:16;2.10;;;1.90;;
7929;SDS011;4010;42.698;23.124;2022-10-16T13:16:09;2.07;;;1.80;;
7929;SDS011;4010;42.698;23.124;2022-10-16T13:18:45;2.37;;;2.00;;
7929;SDS011;4010;42.698;23.124;2022-10-16T13:21:23;2.07;;;1.87;;
7929;SDS011;4010;42.698;23.124;2022-10-16T13:24:02;2.20;;;2.00;;
7929;SDS011;4010;42.698;23.124;2022-10-16T13:26:41;2.30;;;2.10;;
7929;SDS011;4010;42.698;23.124;2022-10-16T13:29:16;2.13;;;1.93;;
7929;SDS011;4010;42.698;23.124;2022-10-16T13:31:44;2.30;;;1.90;;
7929;SDS011;4010;42.698;23.124;2022-10-16T13:34:12;2.60;;;2.17;;
7929;SDS011;4010;42.698;23.124;2022-10-16T13:36:44;3.27;;;2.50;;
7929;SDS011;4010;42.698;23.124;2022-10-16T13:39:12;2.27;;;2.07;;
7929;SDS011;4010;42.698;23.124;2022-10-16T13:41:42;2.20;;;1.80;;
7929;SDS011;4010;42.698;23.124;2022-10-16T13:44:13;3.70;;;2.00;;
7929;SDS011;4010;42.698;23.124;2022-10-16T13:46:46;2.10;;;1.63;;
7929;SDS011;4010;42.698;23.124;2022-10-16T13:49:13;1.93;;;1.40;;
7929;SDS011;4010;42.698;23.124;2022-10-16T13:51:47;1.50;;;1.40;;
7929;SDS011;4010;42.698;23.124;2022-10-16T13:54:20;1.50;;;1.40;;
7929;SDS011;4010;42.698;23.124;2022-10-16T13:56:47;1.77;;;1.30;;
7929;SDS011;4010;42.698;23.124;2022-10-16T13:59:22;1.60;;;1.50;;
7929;SDS011;4010;42.698;23.124;2022-10-16T14:01:51;2.13;;;1.40;;
7929;SDS011;4010;42.698;23.124;2022-10-16T14:04:23;3.27;;;1.40;;
7929;SDS011;4010;42.698;23.124;2022-10-16T14:06:50;2.70;;;1.43;;
7929;SDS011;4010;42.698;23.124;2022-10-16T14:09:21;1.47;;;1.33;;
7929;SDS011;4010;42.698;23.124;2022-10-16T14:11:51;1.60;;;1.50;;
7929;SDS011;4010;42.698;23.124;2022-10-16T14:14:20;1.40;;;1.30;;
7929;SDS011;4010;42.698;23.124;2022-10-16T14:16:48;2.10;;;1.83;;
7929;SDS011;4010;42.698;23.124;2022-10-16T14:19:20;1.73;;;1.60;;
7929;SDS011;4010;42.698;23.124;2022-10-16T14:21:50;3.63;;;1.80;;
7929;SDS011;4010;42.698;23.124;2022-10-16T14:24:27;3.13;;;1.90;;
7929;SDS011;4010;42.698;23.124;2022-10-16T14:26:58;1.80;;;1.70;;
7929;SDS011;4010;42.698;23.124;2022-10-16T14:29:26;1.63;;;1.53;;
7929;SDS011;4010;42.698;23.124;2022-10-16T14:31:57;1.83;;;1.67;;
7929;SDS011;4010;42.698;23.124;2022-10-16T14:34:27;2.40;;;2.00;;
7929;SDS011;4010;42.698;23.124;2022-10-16T14:36:57;2.00;;;1.80;;
7929;SDS011;4010;42.698;23.124;2022-10-16T14:39:29;3.17;;;2.40;;
7929;SDS011;4010;42.698;23.124;2022-10-16T14:41:56;1.83;;;1.60;;
7929;SDS011;4010;42.698;23.124;2022-10-16T14:44:26;1.87;;;1.67;;
7929;SDS011;4010;42.698;23.124;2022-10-16T14:46:56;2.17;;;1.50;;
7929;SDS011;4010;42.698;23.124;2022-10-16T14:49:24;3.67;;;2.90;;
7929;SDS011;4010;42.698;23.124;2022-10-16T14:51:53;1.83;;;1.70;;
7929;SDS011;4010;42.698;23.124;2022-10-16T14:54:20;2.30;;;1.77;;
7929;SDS011;4010;42.698;23.124;2022-10-16T14:56:48;2.10;;;1.90;;
7929;SDS011;4010;42.698;23.124;2022-10-16T14:59:17;3.23;;;1.90;;
7929;SDS011;4010;42.698;23.124;2022-10-16T15:01:48;2.80;;;1.83;;
7929;SDS011;4010;42.698;23.124;2022-10-16T15:04:15;2.10;;;1.80;;
7929;SDS011;4010;42.698;23.124;2022-10-16T15:06:44;2.57;;;1.87;;
7929;SDS011;4010;42.698;23.124;2022-10-16T15:09:10;2.10;;;1.77;;
7929;SDS011;4010;42.698;23.124;2022-10-16T15:11:37;2.80;;;1.90;;
7929;SDS011;4010;42.698;23.124;2022-10-16T15:14:05;2.47;;;1.90;;
7929;SDS011;4010;42.698;23.124;2022-10-16T15:16:32;2.00;;;1.80;;
7929;SDS011;4010;42.698;23.124;2022-10-16T15:18:59;1.90;;;1.70;;
7929;SDS011;4010;42.698;23.124;2022-10-16T15:21:26;2.20;;;1.90;;
7929;SDS011;4010;42.698;23.124;2022-10-16T15:23:57;3.77;;;1.90;;
7929;SDS011;4010;42.698;23.124;2022-10-16T15:26:26;2.10;;;1.87;;